createdAt,value
2022-12-20T18:46:38.891Z,1007.00
2022-12-20T18:47:38.632Z,1007.04
2022-12-20T18:48:38.521Z,1007.00
2022-12-20T18:49:38.402Z,1007.02
2022-12-20T18:50:39.607Z,1007.01
2022-12-20T18:51:38.411Z,1007.03
2022-12-20T18:52:38.287Z,1006.99
2022-12-20T18:53:38.288Z,1006.96
2022-12-20T18:54:38.169Z,1006.96
2022-12-20T18:55:38.175Z,1006.98
2022-12-20T18:56:38.154Z,1006.95
2022-12-20T18:57:38.053Z,1006.96
2022-12-20T18:58:38.059Z,1006.99
2022-12-20T18:59:37.941Z,1006.94
2022-12-20T19:00:37.933Z,1007.06
2022-12-20T19:01:38.170Z,1006.99
2022-12-20T19:02:37.957Z,1006.99
2022-12-20T19:03:37.852Z,1007.04
2022-12-20T19:04:37.697Z,1007.04
2022-12-20T19:05:37.708Z,1007.04
2022-12-20T19:06:37.739Z,1007.04
2022-12-20T19:07:37.585Z,1007.03
2022-12-20T19:08:37.581Z,1007.09
2022-12-20T19:09:37.551Z,1007.08
2022-12-20T19:10:37.466Z,1007.11
2022-12-20T19:11:37.589Z,1007.07
2022-12-20T19:12:37.348Z,1007.08
2022-12-20T19:13:37.354Z,1007.06
2022-12-20T19:14:37.346Z,1007.09
2022-12-20T19:15:37.233Z,1007.09
2022-12-20T19:16:37.330Z,1007.12
2022-12-20T19:17:37.245Z,1007.09
2022-12-20T19:18:37.557Z,1007.08
2022-12-20T19:19:37.122Z,1007.08
2022-12-20T19:20:37.002Z,1007.11
2022-12-20T19:21:37.001Z,1007.08
2022-12-20T19:22:37.119Z,1007.06
2022-12-20T19:23:36.885Z,1007.04
2022-12-20T19:24:37.085Z,1007.01
2022-12-20T19:25:36.876Z,1007.03
2022-12-20T19:26:36.760Z,1007.06
2022-12-20T19:27:36.760Z,1007.02
2022-12-20T19:28:36.645Z,1007.07
2022-12-20T19:29:36.768Z,1007.09
2022-12-20T19:30:36.714Z,1007.06
2022-12-20T19:31:36.782Z,1007.05
2022-12-20T19:32:36.614Z,1007.06
2022-12-20T19:33:36.531Z,1007.03
2022-12-20T19:34:36.525Z,1007.05
2022-12-20T19:36:36.380Z,1007.08
2022-12-20T19:37:37.735Z,1007.08
2022-12-20T19:38:36.743Z,1007.07
2022-12-20T19:39:36.666Z,1007.12
2022-12-20T19:40:36.627Z,1007.06
2022-12-20T19:41:36.265Z,1007.08
2022-12-20T19:44:36.679Z,1007.07
2022-12-20T19:45:36.665Z,1007.08
2022-12-20T19:46:36.283Z,1007.12
2022-12-20T19:47:36.438Z,1007.14
2022-12-20T19:48:36.152Z,1007.12
2022-12-20T19:49:36.501Z,1007.15
2022-12-20T19:50:36.434Z,1007.09
2022-12-20T19:51:36.189Z,1007.11
2022-12-20T19:52:35.799Z,1007.09
2022-12-20T19:53:35.922Z,1007.14
2022-12-20T19:54:36.070Z,1007.09
2022-12-20T19:55:35.575Z,1007.11
2022-12-20T19:56:37.133Z,1007.12
2022-12-20T19:57:36.639Z,1007.14
2022-12-20T19:58:35.440Z,1007.13
2022-12-20T20:01:36.298Z,1007.10
2022-12-20T20:03:36.579Z,1007.11
2022-12-20T20:04:36.058Z,1007.09
2022-12-20T20:06:35.365Z,1007.08
2022-12-20T20:07:36.891Z,1007.10
2022-12-20T20:09:35.334Z,1007.09
2022-12-20T20:10:35.105Z,1007.10
2022-12-20T20:11:35.855Z,1007.12
2022-12-20T20:12:35.232Z,1007.13
2022-12-20T20:13:35.222Z,1007.11
2022-12-20T20:14:35.099Z,1007.11
2022-12-20T20:15:35.390Z,1007.11
2022-12-20T20:16:34.674Z,1007.11
2022-12-20T20:18:35.634Z,1007.10
2022-12-20T20:19:35.221Z,1007.13
2022-12-20T20:21:34.981Z,1007.14
2022-12-20T20:22:34.480Z,1007.17
2022-12-20T20:23:35.504Z,1007.18
2022-12-20T20:24:34.439Z,1007.14
2022-12-20T20:25:35.160Z,1007.13
2022-12-20T20:27:34.889Z,1007.13
2022-12-20T20:28:38.573Z,1007.14
2022-12-20T20:29:34.516Z,1007.16
2022-12-20T20:30:34.156Z,1007.16
2022-12-20T20:31:34.604Z,1007.13
2022-12-20T20:33:34.342Z,1007.11
2022-12-20T20:35:34.280Z,1007.02
2022-12-20T20:36:34.803Z,1007.06
2022-12-20T20:37:34.520Z,1007.12
2022-12-20T20:38:33.709Z,1007.09
2022-12-20T20:39:35.508Z,1007.08
2022-12-20T20:40:33.812Z,1007.11
2022-12-20T20:41:34.490Z,1007.11
2022-12-20T20:42:33.448Z,1007.09
2022-12-20T20:43:35.248Z,1007.05
2022-12-20T20:44:34.463Z,1007.05
2022-12-20T20:45:34.585Z,1007.05
2022-12-20T20:46:34.588Z,1007.03
2022-12-20T20:47:34.708Z,1007.02
2022-12-20T20:49:33.218Z,1007.01
2022-12-20T20:50:33.574Z,1006.99
2022-12-20T20:51:33.108Z,1006.97
2022-12-20T20:52:33.103Z,1007.02
2022-12-20T20:53:34.414Z,1006.95
2022-12-20T20:54:33.019Z,1006.94
2022-12-20T20:55:32.866Z,1006.96
2022-12-20T20:56:32.865Z,1006.89
2022-12-20T20:57:32.861Z,1006.88
2022-12-20T20:58:32.753Z,1006.87
2022-12-20T21:00:32.744Z,1006.85
2022-12-20T21:04:32.507Z,1006.81
2022-12-20T21:06:39.918Z,1006.80
2022-12-20T21:07:32.416Z,1006.81
2022-12-20T21:09:32.207Z,1006.84
2022-12-20T21:11:32.416Z,1006.83
2022-12-20T21:16:32.103Z,1006.79
2022-12-20T21:17:31.921Z,1006.87
2022-12-20T21:18:31.920Z,1006.82
2022-12-20T21:19:32.213Z,1006.79
2022-12-20T21:20:31.813Z,1006.84
2022-12-20T21:21:31.804Z,1006.81
2022-12-20T21:22:31.725Z,1006.85
2022-12-20T21:23:31.864Z,1006.83
2022-12-20T21:24:31.698Z,1006.82
2022-12-20T21:25:31.569Z,1006.83
2022-12-20T21:26:31.506Z,1006.82
2022-12-20T21:27:31.575Z,1006.78
2022-12-20T21:28:31.385Z,1006.77
2022-12-20T21:29:31.458Z,1006.78
2022-12-20T21:30:31.268Z,1006.79
2022-12-20T21:31:31.311Z,1006.86
2022-12-20T21:32:31.272Z,1006.86
2022-12-20T21:33:31.155Z,1006.86
2022-12-20T21:34:31.140Z,1006.80
2022-12-20T21:35:31.143Z,1006.82
2022-12-20T21:36:31.030Z,1006.87
2022-12-20T21:38:31.229Z,1006.87
2022-12-20T21:39:31.003Z,1006.87
2022-12-20T21:41:30.878Z,1006.87
2022-12-20T21:42:30.877Z,1006.90
2022-12-20T21:43:30.863Z,1006.94
2022-12-20T21:44:30.748Z,1006.93
2022-12-20T21:45:30.751Z,1006.93
2022-12-20T21:46:30.759Z,1006.94
2022-12-20T21:47:30.632Z,1006.97
2022-12-20T21:48:30.628Z,1006.98
2022-12-20T21:50:30.541Z,1006.96
2022-12-20T21:54:30.637Z,1006.94
2022-12-20T21:55:30.281Z,1006.95
2022-12-20T21:56:30.298Z,1006.93
2022-12-20T21:57:30.164Z,1006.95
2022-12-20T21:58:30.165Z,1006.94
2022-12-20T21:59:30.198Z,1006.96
2022-12-20T22:00:30.125Z,1006.94
2022-12-20T22:01:30.248Z,1006.92
2022-12-20T22:02:30.125Z,1006.93
2022-12-20T22:03:30.034Z,1006.97
2022-12-20T22:04:29.926Z,1006.93
2022-12-20T22:05:29.928Z,1006.97
2022-12-20T22:06:29.898Z,1006.96
2022-12-20T22:07:29.815Z,1006.96
2022-12-20T22:08:29.937Z,1006.94
2022-12-20T22:09:29.720Z,1006.95
2022-12-20T22:10:29.692Z,1006.97
2022-12-20T22:11:29.577Z,1006.99
2022-12-20T22:13:30.590Z,1007.02
2022-12-20T22:14:29.586Z,1006.96
2022-12-20T22:16:29.588Z,1006.97
2022-12-20T22:17:29.460Z,1006.99
2022-12-20T22:18:29.463Z,1006.96
2022-12-20T22:19:29.467Z,1006.96
2022-12-20T22:23:29.388Z,1006.92
2022-12-20T22:24:29.127Z,1006.88
2022-12-20T22:25:28.993Z,1006.88
2022-12-20T22:26:28.995Z,1006.87
2022-12-20T22:27:29.128Z,1006.87
2022-12-20T22:29:28.874Z,1006.86
2022-12-20T22:30:28.768Z,1006.90
2022-12-20T22:34:28.759Z,1006.93
2022-12-20T22:36:28.770Z,1006.85
2022-12-20T22:39:28.529Z,1006.88
2022-12-20T22:40:28.426Z,1006.90
2022-12-20T22:41:28.288Z,1006.93
2022-12-20T22:42:28.289Z,1006.89
2022-12-20T22:43:28.290Z,1006.88
2022-12-20T22:44:28.416Z,1006.87
2022-12-20T22:45:28.244Z,1006.91
2022-12-20T22:47:28.415Z,1006.91
2022-12-20T22:48:28.069Z,1006.96
2022-12-20T22:50:28.365Z,1006.87
2022-12-20T22:51:28.055Z,1006.94
2022-12-20T22:53:27.940Z,1006.96
2022-12-20T22:54:27.940Z,1006.98
2022-12-20T22:55:27.945Z,1006.94
2022-12-20T22:56:27.833Z,1006.98
2022-12-20T23:00:27.708Z,1007.00
2022-12-20T23:05:27.741Z,1007.09
2022-12-20T23:06:27.623Z,1007.11
2022-12-20T23:07:27.125Z,1007.12
2022-12-20T23:08:27.116Z,1007.16
2022-12-20T23:09:26.995Z,1007.13
2022-12-20T23:10:26.997Z,1007.11
2022-12-20T23:11:27.002Z,1007.08
2022-12-20T23:12:26.884Z,1007.07
2022-12-20T23:14:26.883Z,1007.09
2022-12-20T23:16:26.855Z,1007.08
2022-12-20T23:17:26.645Z,1007.05
2022-12-20T23:18:26.655Z,1007.07
2022-12-20T23:20:26.527Z,1007.03
2022-12-20T23:21:26.547Z,1007.03
2022-12-20T23:22:26.553Z,1007.04
2022-12-20T23:23:26.411Z,1007.09
2022-12-20T23:24:26.417Z,1007.10
2022-12-20T23:25:26.536Z,1007.06
2022-12-20T23:26:26.297Z,1007.09
2022-12-20T23:27:26.300Z,1007.08
2022-12-20T23:28:26.178Z,1007.08
2022-12-20T23:29:26.179Z,1007.06
2022-12-20T23:30:26.060Z,1007.14
2022-12-20T23:31:26.127Z,1007.15
2022-12-20T23:32:26.058Z,1007.12
2022-12-20T23:33:25.940Z,1007.15
2022-12-20T23:34:25.943Z,1007.14
2022-12-20T23:35:25.944Z,1007.18
2022-12-20T23:36:25.830Z,1007.18
2022-12-20T23:37:25.835Z,1007.15
2022-12-20T23:38:25.735Z,1007.14
